createdAt,value
2017-04-30T00:01:16.177Z,22.83
2017-04-30T00:02:15.863Z,22.78
2017-04-30T00:03:15.497Z,22.72
2017-04-30T00:04:15.738Z,22.8
2017-04-30T00:05:15.369Z,22.78
2017-04-30T00:06:15.610Z,22.75
2017-04-30T00:07:15.247Z,22.8
2017-04-30T00:08:15.491Z,22.73
2017-04-30T00:09:15.425Z,22.81
2017-04-30T00:10:15.059Z,22.75
2017-04-30T00:11:15.093Z,22.76
2017-04-30T00:12:14.933Z,22.81
2017-04-30T00:13:14.884Z,22.84
2017-04-30T00:14:14.503Z,22.75
2017-04-30T00:15:14.744Z,22.75
2017-04-30T00:16:14.678Z,22.85
2017-04-30T00:17:14.920Z,22.84
2017-04-30T00:18:14.860Z,22.8
2017-04-30T00:19:14.494Z,22.85
2017-04-30T00:20:14.432Z,22.81
2017-04-30T00:21:14.367Z,22.84
2017-04-30T00:22:14.305Z,22.75
2017-04-30T00:23:14.243Z,22.72
2017-04-30T00:24:14.179Z,22.73
2017-04-30T00:25:14.419Z,22.81
2017-04-30T00:26:14.356Z,22.76
2017-04-30T00:27:14.296Z,22.84
2017-04-30T00:28:14.235Z,22.81
2017-04-30T00:29:14.168Z,22.76
2017-04-30T00:30:14.107Z,22.75
2017-04-30T00:31:14.053Z,22.76
2017-04-30T00:32:13.981Z,22.78
2017-04-30T00:33:13.917Z,22.75
2017-04-30T00:34:13.858Z,22.73
2017-04-30T00:35:13.491Z,22.7
2017-04-30T00:36:13.725Z,22.73
2017-04-30T00:37:13.360Z,22.75
2017-04-30T00:38:13.600Z,22.75
2017-04-30T00:39:13.546Z,22.81
2017-04-30T00:40:13.479Z,22.73
2017-04-30T00:41:13.421Z,22.78
2017-04-30T00:42:13.363Z,22.87
2017-04-30T00:43:13.290Z,22.8
2017-04-30T00:44:12.922Z,22.81
2017-04-30T00:45:13.462Z,22.76
2017-04-30T00:46:13.102Z,22.73
2017-04-30T00:47:13.038Z,22.83
2017-04-30T00:48:12.979Z,22.76
2017-04-30T00:49:12.617Z,22.75
2017-04-30T00:50:12.646Z,22.8
2017-04-30T00:51:12.791Z,22.84
2017-04-30T00:52:12.422Z,22.72
2017-04-30T00:53:12.668Z,22.76
2017-04-30T00:54:12.602Z,22.84
2017-04-30T00:55:12.535Z,22.81
2017-04-30T00:56:12.474Z,22.73
2017-04-30T00:57:12.408Z,22.83
2017-04-30T00:58:12.356Z,22.76
2017-04-30T00:59:12.300Z,22.75
2017-04-30T01:00:12.231Z,22.72
2017-04-30T01:01:12.161Z,22.75
2017-04-30T01:02:12.094Z,22.76
2017-04-30T01:03:12.037Z,22.78
2017-04-30T01:04:11.971Z,22.81
2017-04-30T01:05:11.605Z,22.76
2017-04-30T01:06:11.844Z,22.73
2017-04-30T01:07:11.782Z,22.87
2017-04-30T01:08:11.720Z,22.75
2017-04-30T01:09:11.658Z,22.8
2017-04-30T01:10:11.291Z,22.78
2017-04-30T01:11:11.534Z,22.75
2017-04-30T01:12:11.472Z,22.73
2017-04-30T01:13:11.405Z,22.78
2017-04-30T01:14:11.344Z,22.84
2017-04-30T01:15:11.280Z,22.76
2017-04-30T01:16:11.225Z,22.81
2017-04-30T01:17:11.156Z,22.73
2017-04-30T01:18:11.089Z,22.83
2017-04-30T01:19:11.035Z,22.83
2017-04-30T01:20:10.664Z,22.72
2017-04-30T01:21:10.902Z,22.78
2017-04-30T01:22:10.537Z,22.83
2017-04-30T01:23:10.472Z,22.7
2017-04-30T01:24:10.722Z,22.78
2017-04-30T01:25:10.348Z,22.8
2017-04-30T01:26:10.296Z,22.75
2017-04-30T01:27:10.221Z,22.73
2017-04-30T01:28:10.465Z,22.76
2017-04-30T01:29:10.407Z,22.73
2017-04-30T01:30:10.036Z,22.75
2017-04-30T01:31:10.275Z,22.76
2017-04-30T01:32:09.909Z,22.78
2017-04-30T01:33:09.848Z,22.81
2017-04-30T01:34:09.483Z,22.75
2017-04-30T01:35:10.023Z,22.83
2017-04-30T01:36:09.961Z,22.73
2017-04-30T01:37:09.899Z,22.72
2017-04-30T01:38:09.838Z,22.7
2017-04-30T01:39:09.777Z,22.73
2017-04-30T01:40:09.712Z,22.75
2017-04-30T01:41:09.647Z,22.75
2017-04-30T01:42:09.584Z,22.78
2017-04-30T01:43:09.522Z,22.69
2017-04-30T01:44:09.462Z,22.73
2017-04-30T01:45:09.403Z,22.72
2017-04-30T01:46:09.338Z,22.78
2017-04-30T01:47:09.272Z,22.73
2017-04-30T01:48:09.214Z,22.76
2017-04-30T01:49:09.146Z,22.78
2017-04-30T01:50:09.079Z,22.75
2017-04-30T01:51:09.021Z,22.78
2017-04-30T01:52:08.973Z,22.84
2017-04-30T01:53:08.902Z,22.78
2017-04-30T01:54:08.843Z,22.75
2017-04-30T01:55:08.767Z,22.84
2017-04-30T01:56:08.706Z,22.8
2017-04-30T01:57:08.339Z,22.75
2017-04-30T01:58:08.583Z,22.81
2017-04-30T01:59:08.527Z,22.75
2017-04-30T02:00:08.702Z,22.73
2017-04-30T02:01:08.393Z,22.81
2017-04-30T02:02:08.337Z,22.73
2017-04-30T02:03:07.969Z,22.75
2017-04-30T02:04:08.207Z,22.8
2017-04-30T02:05:08.144Z,22.73
2017-04-30T02:06:07.774Z,22.78
2017-04-30T02:07:08.016Z,22.73
2017-04-30T02:08:07.956Z,22.73
2017-04-30T02:09:07.890Z,22.78
2017-04-30T02:10:07.827Z,22.76
2017-04-30T02:11:07.766Z,22.81
2017-04-30T02:12:07.701Z,22.7
2017-04-30T02:13:07.637Z,22.78
2017-04-30T02:14:07.580Z,22.73
2017-04-30T02:15:07.509Z,22.73
2017-04-30T02:16:07.450Z,22.75
2017-04-30T02:17:07.398Z,22.76
2017-04-30T02:18:07.023Z,22.8
2017-04-30T02:19:07.257Z,22.75
2017-04-30T02:20:06.892Z,22.75
2017-04-30T02:21:07.136Z,22.76
2017-04-30T02:22:06.776Z,22.78
2017-04-30T02:23:07.012Z,22.76
2017-04-30T02:24:06.954Z,22.76
2017-04-30T02:25:06.886Z,22.72
2017-04-30T02:26:06.826Z,22.78
2017-04-30T02:27:06.766Z,22.75
2017-04-30T02:28:06.701Z,22.78
2017-04-30T02:29:06.633Z,22.78
2017-04-30T02:30:06.272Z,22.8
2017-04-30T02:31:06.506Z,22.78
2017-04-30T02:32:06.446Z,22.68
2017-04-30T02:33:06.379Z,22.78
2017-04-30T02:34:06.315Z,22.68
2017-04-30T02:35:06.258Z,22.73
2017-04-30T02:36:06.194Z,22.75
2017-04-30T02:37:06.133Z,22.75
2017-04-30T02:38:06.067Z,22.78
2017-04-30T02:39:06.007Z,22.75
2017-04-30T02:40:06.043Z,22.73
2017-04-30T02:41:05.880Z,22.73
2017-04-30T02:42:05.818Z,22.68
2017-04-30T02:43:05.771Z,22.76
2017-04-30T02:44:05.695Z,22.66
2017-04-30T02:45:05.927Z,22.75
2017-04-30T02:46:05.565Z,22.78
2017-04-30T02:47:05.503Z,22.76
2017-04-30T02:48:05.439Z,22.73
2017-04-30T02:49:05.386Z,22.73
2017-04-30T02:50:05.313Z,22.7
2017-04-30T02:51:05.249Z,22.76
2017-04-30T02:52:05.185Z,22.75
2017-04-30T02:53:05.129Z,22.76
2017-04-30T02:54:05.059Z,22.73
2017-04-30T02:55:05.009Z,22.69
2017-04-30T02:56:04.936Z,22.69
2017-04-30T02:57:04.872Z,22.75
2017-04-30T02:58:04.813Z,22.78
2017-04-30T02:59:04.448Z,22.75
2017-04-30T03:00:04.841Z,22.76
2017-04-30T03:01:04.620Z,22.69
2017-04-30T03:02:04.560Z,22.8
2017-04-30T03:03:04.493Z,22.7
2017-04-30T03:04:04.438Z,22.73
2017-04-30T03:05:04.375Z,22.76
2017-04-30T03:06:04.307Z,22.78
2017-04-30T03:07:04.247Z,22.72
2017-04-30T03:08:04.185Z,22.72
2017-04-30T03:09:04.123Z,22.73
2017-04-30T03:10:03.758Z,22.7
2017-04-30T03:11:03.993Z,22.75
2017-04-30T03:12:03.636Z,22.73
2017-04-30T03:13:03.877Z,22.73
2017-04-30T03:14:03.816Z,22.8
2017-04-30T03:15:03.744Z,22.7
2017-04-30T03:16:03.681Z,22.72
2017-04-30T03:17:03.617Z,22.72
2017-04-30T03:18:03.564Z,22.73
2017-04-30T03:19:03.493Z,22.66
2017-04-30T03:20:03.283Z,22.75
2017-04-30T03:21:03.365Z,22.68
2017-04-30T03:22:03.305Z,22.7
2017-04-30T03:23:03.241Z,22.7
2017-04-30T03:24:03.182Z,22.83
2017-04-30T03:25:03.119Z,22.69
2017-04-30T03:26:03.053Z,22.73
2017-04-30T03:27:02.988Z,22.72
2017-04-30T03:28:02.934Z,22.65
2017-04-30T03:29:02.865Z,22.68
2017-04-30T03:30:02.805Z,22.81
2017-04-30T03:31:02.740Z,22.72
2017-04-30T03:32:02.688Z,22.73
2017-04-30T03:33:02.614Z,22.8
2017-04-30T03:34:02.550Z,22.73
2017-04-30T03:35:02.504Z,22.73
2017-04-30T03:36:02.425Z,22.7
2017-04-30T03:37:02.362Z,22.69
2017-04-30T03:38:02.009Z,22.69
2017-04-30T03:39:01.957Z,22.73
2017-04-30T03:40:02.170Z,22.68
2017-04-30T03:41:02.111Z,22.7
2017-04-30T03:42:02.047Z,22.78
2017-04-30T03:43:01.988Z,22.75
2017-04-30T03:44:01.927Z,22.76
2017-04-30T03:45:01.886Z,22.72
2017-04-30T03:46:01.494Z,22.69
2017-04-30T03:47:01.735Z,22.75
2017-04-30T03:48:01.678Z,22.76
2017-04-30T03:49:01.613Z,22.7
2017-04-30T03:50:01.545Z,22.69
2017-04-30T03:51:01.482Z,22.68
2017-04-30T03:52:01.421Z,22.66
2017-04-30T03:53:01.378Z,22.6
2017-04-30T03:54:01.289Z,22.7
2017-04-30T03:55:01.232Z,22.7
2017-04-30T03:56:01.196Z,22.73
2017-04-30T03:57:01.106Z,22.73
2017-04-30T03:58:01.054Z,22.72
2017-04-30T03:59:00.975Z,22.73
2017-04-30T04:00:00.915Z,22.69
2017-04-30T04:01:00.852Z,22.73
2017-04-30T04:02:00.789Z,22.7
2017-04-30T04:03:00.728Z,22.7
2017-04-30T04:04:00.667Z,22.73
2017-04-30T04:05:00.598Z,22.76
2017-04-30T04:06:00.252Z,22.66
2017-04-30T04:07:00.474Z,22.7
2017-04-30T04:08:00.415Z,22.73
2017-04-30T04:09:00.348Z,22.69
2017-04-30T04:10:00.287Z,22.68
2017-04-30T04:11:00.222Z,22.72
2017-04-30T04:12:00.159Z,22.76
2017-04-30T04:13:00.100Z,22.7
2017-04-30T04:14:00.039Z,22.75
2017-04-30T04:14:59.978Z,22.8
2017-04-30T04:15:59.910Z,22.69
2017-04-30T04:16:59.847Z,22.76
2017-04-30T04:17:59.787Z,22.75
2017-04-30T04:18:59.741Z,22.76
2017-04-30T04:19:59.672Z,22.73
2017-04-30T04:20:59.293Z,22.73
2017-04-30T04:21:59.563Z,22.68
2017-04-30T04:22:59.469Z,22.7
2017-04-30T04:23:59.424Z,22.73
2017-04-30T04:24:59.369Z,22.73
2017-04-30T04:25:59.295Z,22.75
2017-04-30T04:26:59.227Z,22.75
2017-04-30T04:27:59.157Z,22.73
2017-04-30T04:28:59.091Z,22.73
2017-04-30T04:29:59.034Z,22.73
2017-04-30T04:30:58.973Z,22.75
2017-04-30T04:31:58.903Z,22.76
2017-04-30T04:32:58.841Z,22.76
2017-04-30T04:33:58.777Z,22.76
2017-04-30T04:34:58.713Z,22.75
2017-04-30T04:35:58.655Z,22.75
2017-04-30T04:36:58.590Z,22.78
2017-04-30T04:37:58.532Z,22.76
2017-04-30T04:38:58.464Z,22.78
2017-04-30T04:39:58.404Z,22.76
2017-04-30T04:40:58.337Z,22.73
2017-04-30T04:41:58.272Z,22.73
2017-04-30T04:42:58.213Z,22.75
2017-04-30T04:43:58.149Z,22.78
2017-04-30T04:44:58.086Z,22.75
2017-04-30T04:45:58.026Z,22.76
2017-04-30T04:46:57.963Z,22.76
2017-04-30T04:47:57.903Z,22.75
2017-04-30T04:48:57.836Z,22.76
2017-04-30T04:49:57.775Z,22.75
2017-04-30T04:50:57.709Z,22.8
2017-04-30T04:51:57.648Z,22.78
2017-04-30T04:52:57.587Z,22.8
2017-04-30T04:53:57.521Z,22.73
2017-04-30T04:54:57.458Z,22.76
2017-04-30T04:55:57.395Z,22.75
2017-04-30T04:56:57.335Z,22.78
2017-04-30T04:57:57.276Z,22.75
2017-04-30T04:58:57.207Z,22.75
2017-04-30T04:59:57.148Z,22.78
2017-04-30T05:00:57.082Z,22.73
2017-04-30T05:01:56.715Z,22.78
2017-04-30T05:02:56.954Z,22.73
2017-04-30T05:03:56.892Z,22.75
2017-04-30T05:04:56.831Z,22.81
2017-04-30T05:05:56.772Z,22.76
2017-04-30T05:06:56.732Z,22.8
2017-04-30T05:07:56.654Z,22.78
2017-04-30T05:08:56.577Z,22.75
2017-04-30T05:09:56.513Z,22.69
2017-04-30T05:10:56.451Z,22.81
2017-04-30T05:11:56.393Z,22.8
2017-04-30T05:12:56.336Z,22.78
2017-04-30T05:13:56.266Z,22.76
2017-04-30T05:14:55.896Z,22.73
2017-04-30T05:15:56.137Z,22.75
2017-04-30T05:16:56.073Z,22.8
2017-04-30T05:17:56.016Z,22.78
2017-04-30T05:18:55.951Z,22.8
2017-04-30T05:19:55.887Z,22.81
2017-04-30T05:20:55.821Z,22.8
2017-04-30T05:21:55.764Z,22.83
2017-04-30T05:22:55.699Z,22.8
2017-04-30T05:23:55.636Z,22.75
2017-04-30T05:24:55.573Z,22.75
2017-04-30T05:25:55.508Z,22.78
2017-04-30T05:26:55.443Z,22.75
2017-04-30T05:27:55.384Z,22.83
2017-04-30T05:28:55.321Z,22.8
2017-04-30T05:29:55.256Z,22.73
2017-04-30T05:30:55.195Z,22.76
2017-04-30T05:31:55.130Z,22.73
2017-04-30T05:32:55.082Z,22.8
2017-04-30T05:33:55.008Z,22.76
2017-04-30T05:34:54.944Z,22.72
2017-04-30T05:35:54.879Z,22.81
2017-04-30T05:36:54.823Z,22.8
2017-04-30T05:37:54.754Z,22.78
2017-04-30T05:38:54.698Z,22.78
2017-04-30T05:39:54.628Z,22.81
2017-04-30T05:40:54.582Z,22.8
2017-04-30T05:41:54.501Z,22.76
2017-04-30T05:42:54.442Z,22.81
2017-04-30T05:43:54.375Z,22.75
2017-04-30T05:44:54.313Z,22.78
2017-04-30T05:45:54.251Z,22.81
2017-04-30T05:46:54.188Z,22.72
2017-04-30T05:47:54.128Z,22.72
2017-04-30T05:48:54.064Z,22.81
2017-04-30T05:49:54.003Z,22.76
2017-04-30T05:50:53.937Z,22.76
2017-04-30T05:51:53.874Z,22.7
2017-04-30T05:52:53.809Z,22.76
2017-04-30T05:53:53.745Z,22.73
2017-04-30T05:54:53.688Z,22.8
2017-04-30T05:55:53.622Z,22.78
2017-04-30T05:56:53.561Z,22.73
2017-04-30T05:57:53.496Z,22.73
2017-04-30T05:58:53.132Z,22.73
2017-04-30T05:59:53.370Z,22.75
2017-04-30T06:00:53.309Z,22.76
2017-04-30T06:01:53.251Z,22.84
2017-04-30T06:02:53.190Z,22.72
2017-04-30T06:03:53.120Z,22.81
2017-04-30T06:04:53.055Z,22.76
2017-04-30T06:05:52.995Z,22.72
2017-04-30T06:06:52.932Z,22.76
2017-04-30T06:07:52.871Z,22.81
2017-04-30T06:08:52.506Z,22.78
2017-04-30T06:09:52.741Z,22.76
2017-04-30T06:10:52.677Z,22.81
2017-04-30T06:11:52.616Z,22.83
2017-04-30T06:12:52.558Z,22.72
2017-04-30T06:13:52.491Z,22.76
2017-04-30T06:14:52.428Z,22.75
2017-04-30T06:15:52.062Z,22.73
2017-04-30T06:16:52.300Z,22.73
2017-04-30T06:17:52.241Z,22.73
2017-04-30T06:18:52.180Z,22.78
2017-04-30T06:19:52.123Z,22.72
2017-04-30T06:20:52.053Z,22.78
2017-04-30T06:21:51.990Z,22.76
2017-04-30T06:22:51.925Z,22.76
2017-04-30T06:23:51.866Z,22.78
2017-04-30T06:24:51.801Z,22.81
2017-04-30T06:25:51.769Z,22.73
2017-04-30T06:26:51.710Z,22.75
2017-04-30T06:27:51.610Z,22.84
2017-04-30T06:28:51.551Z,22.76
2017-04-30T06:29:51.489Z,22.83
2017-04-30T06:30:51.421Z,22.78
2017-04-30T06:31:51.358Z,22.78
2017-04-30T06:32:51.302Z,22.8
2017-04-30T06:33:51.240Z,22.73
2017-04-30T06:34:51.171Z,22.76
2017-04-30T06:35:51.217Z,22.76
2017-04-30T06:36:51.050Z,22.73
2017-04-30T06:37:50.680Z,22.81
2017-04-30T06:38:50.619Z,22.81
2017-04-30T06:39:50.853Z,22.84
2017-04-30T06:40:50.794Z,22.83
2017-04-30T06:41:50.733Z,22.85
2017-04-30T06:42:50.367Z,22.8
2017-04-30T06:43:50.606Z,22.78
2017-04-30T06:44:50.243Z,22.76
2017-04-30T06:45:50.478Z,22.73
2017-04-30T06:46:50.416Z,22.84
2017-04-30T06:47:50.356Z,22.84
2017-04-30T06:48:50.299Z,22.81
2017-04-30T06:49:50.229Z,22.75
2017-04-30T06:50:50.164Z,22.84
2017-04-30T06:51:50.104Z,22.8
2017-04-30T06:52:50.049Z,22.8
2017-04-30T06:53:49.681Z,22.75
2017-04-30T06:54:49.914Z,22.76
2017-04-30T06:55:49.850Z,22.81
2017-04-30T06:56:49.184Z,22.8
2017-04-30T06:57:49.726Z,22.85
2017-04-30T06:58:49.674Z,22.8
2017-04-30T06:59:49.608Z,22.76
2017-04-30T07:00:49.536Z,22.75
2017-04-30T07:01:49.472Z,22.81
2017-04-30T07:02:49.411Z,22.76
2017-04-30T07:03:49.350Z,22.81
2017-04-30T07:04:49.287Z,22.76
2017-04-30T07:05:49.225Z,22.81
2017-04-30T07:06:49.163Z,22.83
2017-04-30T07:07:49.101Z,22.81
2017-04-30T07:08:49.038Z,22.81
2017-04-30T07:09:48.969Z,22.81
2017-04-30T07:10:48.910Z,22.84
2017-04-30T07:11:48.546Z,22.78
2017-04-30T07:12:48.786Z,22.78
2017-04-30T07:13:48.422Z,22.84
2017-04-30T07:14:48.660Z,22.8
2017-04-30T07:15:48.596Z,22.84
2017-04-30T07:16:48.535Z,22.78
2017-04-30T07:17:48.485Z,22.84
2017-04-30T07:18:48.409Z,22.8
2017-04-30T07:19:48.347Z,22.76
2017-04-30T07:20:48.385Z,22.76
2017-04-30T07:21:48.221Z,22.76
2017-04-30T07:22:48.152Z,22.84
2017-04-30T07:23:48.092Z,22.87
2017-04-30T07:24:48.034Z,22.83
2017-04-30T07:25:48.269Z,22.83
2017-04-30T07:26:47.900Z,22.8
2017-04-30T07:27:47.847Z,22.84
2017-04-30T07:28:47.780Z,22.85
2017-04-30T07:29:47.749Z,22.83
2017-04-30T07:30:47.655Z,22.83
2017-04-30T07:31:47.598Z,22.84
2017-04-30T07:32:47.528Z,22.78
2017-04-30T07:33:47.468Z,22.81
2017-04-30T07:34:47.441Z,22.88
2017-04-30T07:35:47.338Z,22.88
2017-04-30T07:36:47.275Z,22.81
2017-04-30T07:37:47.215Z,22.9
2017-04-30T07:38:47.151Z,22.84
2017-04-30T07:39:47.090Z,22.83
2017-04-30T07:40:47.032Z,22.8
2017-04-30T07:41:46.974Z,22.76
2017-04-30T07:42:46.907Z,22.84
2017-04-30T07:43:46.841Z,22.83
2017-04-30T07:44:46.777Z,22.8
2017-04-30T07:45:46.711Z,22.8
2017-04-30T07:46:46.654Z,22.78
2017-04-30T07:47:46.593Z,22.83
2017-04-30T07:48:46.528Z,22.93
2017-04-30T07:49:46.469Z,22.93
2017-04-30T07:50:46.703Z,22.91
2017-04-30T07:51:46.339Z,22.83
2017-04-30T07:52:46.283Z,22.83
2017-04-30T07:53:46.216Z,22.85
2017-04-30T07:54:46.165Z,22.81
2017-04-30T07:55:46.185Z,22.84
2017-04-30T07:56:46.023Z,22.81
2017-04-30T07:57:45.982Z,22.9
2017-04-30T07:58:45.899Z,22.83
2017-04-30T07:59:45.841Z,22.83
2017-04-30T08:00:46.757Z,22.85
2017-04-30T08:01:45.716Z,22.81
2017-04-30T08:02:45.656Z,22.91
2017-04-30T08:03:45.587Z,22.8
2017-04-30T08:04:45.522Z,22.87
2017-04-30T08:05:45.457Z,22.78
2017-04-30T08:06:45.408Z,22.9
2017-04-30T08:07:45.044Z,22.83
2017-04-30T08:08:45.277Z,22.78
2017-04-30T08:09:45.211Z,22.93
2017-04-30T08:10:45.299Z,22.83
2017-04-30T08:11:45.084Z,22.98
2017-04-30T08:12:45.024Z,22.84
2017-04-30T08:13:44.959Z,22.84
2017-04-30T08:14:44.899Z,22.83
2017-04-30T08:15:44.845Z,22.87
2017-04-30T08:16:44.469Z,22.9
2017-04-30T08:17:44.709Z,22.81
2017-04-30T08:18:44.644Z,22.9
2017-04-30T08:19:44.585Z,22.84
2017-04-30T08:20:44.534Z,22.93
2017-04-30T08:21:44.457Z,22.93
2017-04-30T08:22:44.394Z,22.83
2017-04-30T08:23:44.333Z,22.76
2017-04-30T08:24:44.269Z,22.8
2017-04-30T08:25:44.207Z,22.88
2017-04-30T08:26:44.143Z,22.85
2017-04-30T08:27:44.082Z,22.9
2017-04-30T08:28:44.032Z,22.78
2017-04-30T08:29:43.955Z,22.96
2017-04-30T08:30:43.594Z,22.88
2017-04-30T08:31:43.527Z,22.88
2017-04-30T08:32:43.778Z,22.9
2017-04-30T08:33:43.709Z,22.88
2017-04-30T08:34:43.646Z,22.85
2017-04-30T08:35:43.577Z,22.93
2017-04-30T08:36:43.554Z,22.93
2017-04-30T08:37:43.457Z,22.91
2017-04-30T08:38:43.395Z,22.94
2017-04-30T08:39:43.331Z,22.93
2017-04-30T08:40:43.267Z,22.93
2017-04-30T08:41:43.211Z,22.93
2017-04-30T08:42:43.154Z,22.81
2017-04-30T08:43:43.084Z,22.88
2017-04-30T08:44:43.021Z,22.98
2017-04-30T08:45:42.956Z,22.88
2017-04-30T08:46:42.895Z,22.9
2017-04-30T08:47:42.832Z,22.91
2017-04-30T08:48:42.766Z,22.84
2017-04-30T08:49:42.707Z,22.88
2017-04-30T08:50:42.641Z,22.91
2017-04-30T08:51:42.580Z,22.93
2017-04-30T08:52:42.516Z,22.94
2017-04-30T08:53:42.477Z,22.94
2017-04-30T08:54:42.392Z,22.96
2017-04-30T08:55:42.330Z,22.9
2017-04-30T08:56:41.975Z,22.96
2017-04-30T08:57:42.218Z,22.9
2017-04-30T08:58:42.153Z,22.93
2017-04-30T08:59:42.083Z,22.85
2017-04-30T09:00:43.360Z,22.91
2017-04-30T09:01:41.954Z,22.9
2017-04-30T09:02:41.887Z,22.99
2017-04-30T09:03:41.829Z,22.94
2017-04-30T09:04:41.769Z,22.91
2017-04-30T09:05:41.700Z,22.87
2017-04-30T09:06:41.639Z,22.94
2017-04-30T09:07:41.582Z,22.93
2017-04-30T09:08:41.511Z,22.9
2017-04-30T09:09:41.453Z,22.96
2017-04-30T09:10:41.391Z,22.93
2017-04-30T09:11:41.329Z,22.93
2017-04-30T09:12:41.262Z,22.96
2017-04-30T09:13:41.204Z,22.94
2017-04-30T09:14:41.139Z,22.9
2017-04-30T09:15:41.074Z,22.98
2017-04-30T09:16:41.015Z,22.94
2017-04-30T09:17:40.953Z,22.94
2017-04-30T09:18:40.890Z,22.9
2017-04-30T09:19:40.536Z,22.94
2017-04-30T09:20:40.764Z,22.98
2017-04-30T09:21:40.702Z,22.99
2017-04-30T09:22:40.638Z,22.91
2017-04-30T09:23:40.574Z,22.96
2017-04-30T09:24:40.515Z,22.88
2017-04-30T09:25:40.150Z,22.91
2017-04-30T09:26:40.092Z,22.9
2017-04-30T09:27:40.022Z,22.87
2017-04-30T09:28:40.270Z,22.94
2017-04-30T09:29:39.902Z,22.9
2017-04-30T09:30:40.139Z,22.88
2017-04-30T09:31:40.070Z,22.98
2017-04-30T09:32:40.024Z,22.98
2017-04-30T09:33:39.948Z,23.02
2017-04-30T09:34:39.891Z,22.94
2017-04-30T09:35:39.843Z,22.94
2017-04-30T09:36:39.763Z,22.91
2017-04-30T09:37:39.706Z,23.02
2017-04-30T09:38:39.642Z,23
2017-04-30T09:39:39.579Z,23.02
2017-04-30T09:40:39.520Z,22.96
2017-04-30T09:41:39.147Z,22.99
2017-04-30T09:42:39.392Z,23
2017-04-30T09:43:39.324Z,22.99
2017-04-30T09:44:39.260Z,22.98
2017-04-30T09:45:39.198Z,23.02
2017-04-30T09:46:39.139Z,22.99
2017-04-30T09:47:39.074Z,22.98
2017-04-30T09:48:39.014Z,23.02
2017-04-30T09:49:38.948Z,22.99
2017-04-30T09:50:38.889Z,23.03
2017-04-30T09:51:38.831Z,23.03
2017-04-30T09:52:38.768Z,23.06
2017-04-30T09:53:38.699Z,23.05
2017-04-30T09:54:38.639Z,23
2017-04-30T09:55:38.584Z,23.02
2017-04-30T09:56:38.511Z,23.02
2017-04-30T09:57:38.455Z,23.03
2017-04-30T09:58:38.391Z,23.05
2017-04-30T09:59:38.322Z,23.06
2017-04-30T10:00:38.078Z,23
2017-04-30T10:01:38.199Z,23.06
2017-04-30T10:02:38.141Z,23.08
2017-04-30T10:03:38.080Z,23.03
2017-04-30T10:04:37.713Z,23.03
2017-04-30T10:05:38.045Z,23.08
2017-04-30T10:06:37.891Z,23.12
2017-04-30T10:07:37.525Z,23.08
2017-04-30T10:08:37.772Z,23.09
2017-04-30T10:09:37.702Z,23.09
2017-04-30T10:10:37.638Z,23.1
2017-04-30T10:11:37.291Z,23.13
2017-04-30T10:12:37.514Z,23.12
2017-04-30T10:13:37.458Z,23.17
2017-04-30T10:14:37.388Z,23.17
2017-04-30T10:15:37.324Z,23.09
2017-04-30T10:16:37.263Z,23.13
2017-04-30T10:17:37.201Z,23.13
2017-04-30T10:18:36.838Z,23.09
2017-04-30T10:19:36.821Z,23.2
2017-04-30T10:20:37.023Z,23.1
2017-04-30T10:21:36.952Z,23.09
2017-04-30T10:22:36.586Z,23.15
2017-04-30T10:23:36.524Z,23.13
2017-04-30T10:24:36.764Z,23.13
2017-04-30T10:25:36.401Z,23.15
2017-04-30T10:26:36.336Z,23.13
2017-04-30T10:27:36.590Z,23.13
2017-04-30T10:28:36.511Z,23.13
2017-04-30T10:29:36.450Z,23.21
2017-04-30T10:30:36.099Z,23.2
2017-04-30T10:31:36.335Z,23.24
2017-04-30T10:32:36.264Z,23.24
2017-04-30T10:33:35.901Z,23.17
2017-04-30T10:34:36.137Z,23.17
2017-04-30T10:35:35.772Z,23.2
2017-04-30T10:36:36.014Z,23.23
2017-04-30T10:37:35.952Z,23.21
2017-04-30T10:38:35.896Z,23.23
2017-04-30T10:39:35.825Z,23.24
2017-04-30T10:40:35.863Z,23.21
2017-04-30T10:41:35.704Z,23.25
2017-04-30T10:42:35.641Z,23.23
2017-04-30T10:43:35.582Z,23.21
2017-04-30T10:44:35.213Z,23.23
2017-04-30T10:45:35.550Z,23.23
2017-04-30T10:46:35.390Z,23.2
2017-04-30T10:47:35.330Z,23.2
2017-04-30T10:48:35.267Z,23.27
2017-04-30T10:49:35.202Z,23.25
2017-04-30T10:50:35.140Z,23.32
2017-04-30T10:51:35.077Z,23.32
2017-04-30T10:52:35.017Z,23.32
2017-04-30T10:53:34.950Z,23.32
2017-04-30T10:54:34.900Z,23.36
2017-04-30T10:55:34.828Z,23.25
2017-04-30T10:56:34.769Z,23.25
2017-04-30T10:57:34.414Z,23.36
2017-04-30T10:58:34.341Z,23.24
2017-04-30T10:59:33.974Z,23.39
2017-04-30T11:00:34.520Z,23.4
2017-04-30T11:01:34.152Z,23.37
2017-04-30T11:02:34.394Z,23.32
2017-04-30T11:03:34.028Z,23.34
2017-04-30T11:04:33.965Z,23.25
2017-04-30T11:05:33.911Z,23.32
2017-04-30T11:06:34.148Z,23.31
2017-04-30T11:07:34.082Z,23.28
2017-04-30T11:08:34.020Z,23.32
2017-04-30T11:09:33.960Z,23.36
2017-04-30T11:10:33.995Z,23.27
2017-04-30T11:11:33.835Z,23.27
2017-04-30T11:12:33.479Z,23.32
2017-04-30T11:13:33.712Z,23.31
2017-04-30T11:14:33.646Z,23.37
2017-04-30T11:15:33.280Z,23.32
2017-04-30T11:16:33.518Z,23.36
2017-04-30T11:17:33.466Z,23.44
2017-04-30T11:18:33.397Z,23.43
2017-04-30T11:19:33.332Z,23.47
2017-04-30T11:20:33.269Z,23.41
2017-04-30T11:21:33.207Z,23.39
2017-04-30T11:22:33.148Z,23.46
2017-04-30T11:23:33.087Z,23.44
2017-04-30T11:24:33.026Z,23.46
2017-04-30T11:25:32.959Z,23.44
2017-04-30T11:26:32.898Z,23.43
2017-04-30T11:27:32.836Z,23.48
2017-04-30T11:28:32.773Z,23.46
2017-04-30T11:29:32.713Z,23.46
2017-04-30T11:30:32.649Z,23.44
2017-04-30T11:31:32.587Z,23.58
2017-04-30T11:32:32.522Z,23.56
2017-04-30T11:33:32.462Z,23.5
2017-04-30T11:34:32.112Z,23.46
2017-04-30T11:35:32.337Z,23.44
2017-04-30T11:36:32.276Z,23.59
2017-04-30T11:37:31.911Z,23.55
2017-04-30T11:38:31.846Z,23.51
2017-04-30T11:39:32.100Z,23.48
2017-04-30T11:40:32.028Z,23.54
2017-04-30T11:41:31.661Z,23.54
2017-04-30T11:42:31.917Z,23.54
2017-04-30T11:43:31.843Z,23.46
2017-04-30T11:44:31.517Z,23.51
2017-04-30T11:45:31.414Z,23.5
2017-04-30T11:46:31.653Z,23.56
2017-04-30T11:47:31.593Z,23.51
2017-04-30T11:48:31.530Z,23.46
2017-04-30T11:49:31.468Z,23.48
2017-04-30T11:50:31.406Z,23.51
2017-04-30T11:51:31.344Z,23.5
2017-04-30T11:52:31.285Z,23.48
2017-04-30T11:53:31.217Z,23.5
2017-04-30T11:54:31.156Z,23.46
2017-04-30T11:55:31.095Z,23.56
2017-04-30T11:56:31.035Z,23.48
2017-04-30T11:57:30.971Z,23.5
2017-04-30T11:58:30.911Z,23.5
2017-04-30T11:59:30.843Z,23.55
2017-04-30T12:00:30.787Z,23.56
2017-04-30T12:01:30.718Z,23.54
2017-04-30T12:02:30.662Z,23.51
2017-04-30T12:03:30.591Z,23.51
2017-04-30T12:04:30.533Z,23.51
2017-04-30T12:05:30.473Z,23.51
2017-04-30T12:06:30.404Z,23.5
2017-04-30T12:07:30.349Z,23.54
2017-04-30T12:08:30.284Z,23.5
2017-04-30T12:09:30.224Z,23.5
2017-04-30T12:10:30.160Z,23.5
2017-04-30T12:11:30.096Z,23.54
2017-04-30T12:12:30.036Z,23.56
2017-04-30T12:13:29.977Z,23.54
2017-04-30T12:14:29.915Z,23.54
2017-04-30T12:15:29.851Z,23.51
2017-04-30T12:16:29.786Z,23.46
2017-04-30T12:17:29.723Z,23.54
2017-04-30T12:18:29.665Z,23.51
2017-04-30T12:19:29.599Z,23.47
2017-04-30T12:20:29.236Z,23.55
2017-04-30T12:21:29.169Z,23.5
2017-04-30T12:22:29.410Z,23.55
2017-04-30T12:23:29.357Z,23.55
2017-04-30T12:24:29.288Z,23.59
2017-04-30T12:25:28.970Z,23.55
2017-04-30T12:26:29.167Z,23.48
2017-04-30T12:27:28.801Z,23.61
2017-04-30T12:28:28.750Z,23.54
2017-04-30T12:29:28.978Z,23.55
2017-04-30T12:30:28.613Z,23.46
2017-04-30T12:31:28.856Z,23.46
2017-04-30T12:32:28.492Z,23.56
2017-04-30T12:33:28.745Z,23.44
2017-04-30T12:34:28.366Z,23.47
2017-04-30T12:35:28.708Z,23.51
2017-04-30T12:36:28.543Z,23.5
2017-04-30T12:37:28.486Z,23.54
2017-04-30T12:38:28.423Z,23.44
2017-04-30T12:39:28.357Z,23.56
2017-04-30T12:40:28.295Z,23.55
2017-04-30T12:41:28.243Z,23.51
2017-04-30T12:42:28.202Z,23.55
2017-04-30T12:43:28.111Z,23.61
2017-04-30T12:44:28.051Z,23.56
2017-04-30T12:45:27.985Z,23.48
2017-04-30T12:46:27.625Z,23.41
2017-04-30T12:47:27.862Z,23.41
2017-04-30T12:48:27.802Z,23.41
2017-04-30T12:49:27.739Z,23.59
2017-04-30T12:50:27.679Z,23.41
2017-04-30T12:51:27.612Z,23.55
2017-04-30T12:52:27.552Z,23.56
2017-04-30T12:53:27.492Z,23.41
2017-04-30T12:54:27.427Z,23.56
2017-04-30T12:55:27.360Z,23.51
2017-04-30T12:56:27.303Z,23.46